Time;durP1;ratioP1;P1;durP2;ratioP2;P2;SDS_P1;SDS_P2;PMS_P1;PMS_P2;Temp;Humidity;BMP_temperature;BMP_pressure;BME280_temperature;BME280_humidity;BME280_pressure;Samples;Min_cycle;Max_cycle;Signal;HPM_P1;HPM_P2
2022/04/21 00:01:26;;;;;;;0.20;0.20;;;8.60;99.90;;;8.58;93.58;99664.81;5060087;28;20212;-76
2022/04/21 00:03:54;;;;;;;0.20;0.20;;;8.50;99.90;;;8.51;94.08;99665.66;5049680;28;20207;-76
2022/04/21 00:06:21;;;;;;;0.20;0.20;;;8.50;99.90;;;8.45;95.12;99677.91;5055477;28;20238;-75
2022/04/21 00:08:49;;;;;;;0.20;0.20;;;8.50;99.90;;;8.44;95.57;99687.56;5066930;28;20241;-76
2022/04/21 00:11:17;;;;;;;0.20;0.20;;;8.40;99.90;;;8.43;95.81;99700.75;5059017;28;20221;-75
2022/04/21 00:13:45;;;;;;;0.20;0.20;;;8.40;99.90;;;8.58;95.59;99721.91;5063407;28;20642;-79
2022/04/21 00:16:14;;;;;;;0.20;0.20;;;8.40;99.90;;;8.47;96.08;99703.41;5061582;28;20242;-77
2022/04/21 00:18:46;;;;;;;0.20;0.20;;;8.40;99.90;;;8.34;96.64;99702.44;5058053;28;20211;-78
2022/04/21 00:21:13;;;;;;;0.20;0.20;;;8.30;99.90;;;8.43;96.55;99727.97;5062229;28;20593;-75
2022/04/21 00:23:41;;;;;;;0.20;0.20;;;8.40;99.90;;;8.34;96.98;99723.53;5062330;28;20205;-77
2022/04/21 00:26:09;;;;;;;0.20;0.20;;;8.40;99.90;;;8.43;96.79;99741.13;5051163;28;20707;-76
2022/04/21 00:28:37;;;;;;;0.20;0.20;;;8.40;99.90;;;8.43;96.79;99724.44;5047773;28;20214;-77
2022/04/21 00:31:05;;;;;;;0.20;0.20;;;8.40;99.90;;;8.32;97.17;99727.88;5064540;28;20209;-76
2022/04/21 00:33:33;;;;;;;0.20;0.20;;;8.40;99.90;;;8.20;97.94;99726.91;5068032;28;20197;-80
2022/04/21 00:36:01;;;;;;;0.20;0.20;;;8.30;99.90;;;8.24;98.28;99733.94;5061481;28;20230;-77
2022/04/21 00:38:29;;;;;;;0.35;0.35;;;8.30;99.90;;;8.20;98.40;99740.94;5044203;28;20198;-77
2022/04/21 00:40:56;;;;;;;0.20;0.20;;;8.30;99.90;;;8.24;98.46;99741.84;5059169;28;20673;-76
2022/04/21 00:43:24;;;;;;;0.20;0.20;;;8.20;99.90;;;8.09;98.69;99729.44;5049077;28;20329;-75
2022/04/21 00:45:54;;;;;;;0.20;0.20;;;8.20;99.90;;;8.11;99.25;99740.88;5056758;28;20222;-76
2022/04/21 00:48:23;;;;;;;0.20;0.20;;;8.10;99.90;;;8.09;99.98;99749.63;5044598;28;20218;-75
2022/04/21 00:50:51;;;;;;;0.20;0.20;;;8.10;99.90;;;8.13;99.65;99760.22;5049486;28;20208;-76
2022/04/21 00:53:19;;;;;;;0.20;0.20;;;8.10;99.90;;;8.13;99.96;99764.59;5052031;28;20210;-76
2022/04/21 00:55:47;;;;;;;0.20;0.20;;;8.10;99.90;;;8.12;99.69;99768.09;5054427;28;20233;-75
2022/04/21 00:58:16;;;;;;;0.30;0.30;;;8.10;99.90;;;8.11;99.82;99771.59;5051965;28;20197;-76
2022/04/21 01:00:44;;;;;;;0.65;0.65;;;8.00;99.90;;;8.03;100.00;99774.16;5072395;28;20205;-75
2022/04/21 01:03:14;;;;;;;0.20;0.20;;;8.00;99.90;;;8.02;100.00;99778.56;5059271;28;20203;-77
2022/04/21 01:05:43;;;;;;;0.20;0.20;;;7.90;99.90;;;8.03;100.00;99790.84;5049404;28;20222;-75
2022/04/21 01:08:12;;;;;;;0.70;0.70;;;7.90;99.90;;;8.01;100.00;99799.59;5069615;28;20666;-77
2022/04/21 01:10:43;;;;;;;0.20;0.20;;;8.00;99.90;;;8.05;100.00;99811.03;5060362;28;20216;-78
2022/04/21 01:13:12;;;;;;;0.20;0.20;;;7.90;99.90;;;7.93;100.00;99796.91;5065761;28;20681;-76
2022/04/21 01:15:41;;;;;;;0.20;0.20;;;7.90;99.90;;;7.89;100.00;99796.84;5053554;28;20261;-77
2022/04/21 01:18:09;;;;;;;0.20;0.20;;;7.90;99.90;;;7.85;100.00;99798.56;5060759;28;20210;-75
2022/04/21 01:20:37;;;;;;;0.30;0.30;;;7.90;99.90;;;7.86;100.00;99807.34;5060309;28;20240;-75
2022/04/21 01:23:05;;;;;;;0.20;0.20;;;7.80;99.90;;;7.84;100.00;99817.00;5073810;28;20576;-76
2022/04/21 01:25:40;;;;;;;0.20;0.20;;;7.80;99.90;;;7.75;100.00;99825.63;5047697;28;20225;-78
2022/04/21 01:28:10;;;;;;;0.40;0.40;;;7.80;99.90;;;7.69;100.00;99828.22;5044957;28;20685;-74
2022/04/21 01:30:38;;;;;;;0.20;0.20;;;7.70;99.90;;;7.61;100.00;99830.75;5063616;28;20202;-75
2022/04/21 01:33:08;;;;;;;0.20;0.20;;;7.70;99.90;;;7.56;100.00;99835.09;5061618;28;20202;-75
2022/04/21 01:35:37;;;;;;;0.30;0.30;;;7.70;99.90;;;7.58;100.00;99848.25;5066563;28;20214;-75
2022/04/21 01:41:11;;;;;;;0.30;0.30;;;7.60;99.90;;;7.50;100.00;99840.28;5066972;28;20218;-76
2022/04/21 01:43:43;;;;;;;0.20;0.20;;;7.50;99.90;;;7.58;100.00;99861.41;5054585;28;20194;-78
2022/04/21 01:46:11;;;;;;;0.30;0.30;;;7.50;99.90;;;7.51;100.00;99854.31;5066379;28;20229;-75
2022/04/21 01:48:40;;;;;;;0.30;0.30;;;7.50;99.90;;;7.51;100.00;99859.56;5064049;28;20685;-76
2022/04/21 01:51:08;;;;;;;0.20;0.20;;;7.50;99.90;;;7.52;100.00;99867.47;5072753;28;20213;-75
2022/04/21 01:53:36;;;;;;;0.20;0.20;;;7.50;99.90;;;7.49;100.00;99858.66;5068897;28;20214;-75
2022/04/21 01:56:04;;;;;;;0.20;0.20;;;7.50;99.90;;;7.53;100.00;99874.50;5071489;28;20225;-76
2022/04/21 01:58:32;;;;;;;0.30;0.30;;;7.40;99.90;;;7.51;100.00;99880.63;5072716;28;20210;-76
2022/04/21 02:01:00;;;;;;;0.20;0.20;;;7.40;99.90;;;7.51;100.00;99878.88;5052328;28;20205;-75
2022/04/21 02:03:30;;;;;;;0.20;0.20;;;7.40;99.90;;;7.51;100.00;99885.88;5069246;28;20202;-76
2022/04/21 02:05:59;;;;;;;0.20;0.20;;;7.40;99.90;;;7.41;100.00;99865.59;5070896;28;20677;-75
2022/04/21 02:08:27;;;;;;;0.20;0.20;;;7.40;99.90;;;7.29;100.00;99859.31;5068014;28;20197;-75
2022/04/21 02:10:55;;;;;;;0.22;0.22;;;7.30;99.90;;;7.33;100.00;99876.91;5059242;28;20203;-75
2022/04/21 02:13:23;;;;;;;0.20;0.20;;;7.30;99.90;;;7.44;100.00;99898.06;5067418;28;20198;-75
2022/04/21 02:15:51;;;;;;;0.20;0.20;;;7.30;99.90;;;7.34;100.00;99897.06;5069209;28;20225;-75
2022/04/21 02:18:19;;;;;;;0.10;0.10;;;7.30;99.90;;;7.34;100.00;99896.19;5049294;28;20237;-76
2022/04/21 02:20:47;;;;;;;0.20;0.20;;;7.30;99.90;;;7.31;100.00;99901.41;5070416;28;20210;-76
2022/04/21 02:23:15;;;;;;;0.20;0.20;;;7.20;99.90;;;7.18;100.00;99902.97;5062886;28;20210;-76
2022/04/21 02:25:43;;;;;;;0.20;0.20;;;7.20;99.90;;;7.17;100.00;99900.34;5075956;28;20221;-78
2022/04/21 02:28:11;;;;;;;0.20;0.20;;;7.20;99.90;;;7.07;100.00;99900.19;5063587;28;20202;-77
2022/04/21 02:30:38;;;;;;;0.20;0.20;;;7.10;99.90;;;6.96;100.00;99901.78;5072326;28;20200;-76
2022/04/21 02:33:06;;;;;;;0.20;0.20;;;7.10;99.90;;;7.05;100.00;99914.19;5066902;28;20205;-75
2022/04/21 02:35:34;;;;;;;0.20;0.20;;;7.00;99.90;;;6.96;100.00;99912.31;5067044;28;20222;-75
2022/04/21 02:38:02;;;;;;;0.20;0.20;;;7.00;99.90;;;6.92;100.00;99907.88;5066527;28;20242;-75
2022/04/21 02:40:30;;;;;;;0.30;0.30;;;7.00;99.90;;;6.84;100.00;99912.13;5067456;28;20213;-75
2022/04/21 02:42:58;;;;;;;0.20;0.20;;;7.00;99.90;;;6.74;100.00;99918.97;5062231;28;20210;-75
2022/04/21 02:45:26;;;;;;;0.20;0.20;;;6.90;99.90;;;6.76;100.00;99934.78;5069010;28;20226;-76
2022/04/21 02:47:55;;;;;;;0.30;0.30;;;6.80;99.90;;;6.95;100.00;99944.72;5073266;28;20221;-76
2022/04/21 02:50:23;;;;;;;0.20;0.20;;;6.80;99.90;;;6.83;100.00;99933.13;5053412;28;20194;-75
2022/04/21 02:52:52;;;;;;;0.20;0.20;;;6.80;99.90;;;6.83;100.00;99941.88;5061422;28;20221;-75
2022/04/21 02:58:06;;;;;;;0.30;0.30;;;6.80;99.90;;;6.83;100.00;99944.50;5050156;28;20218;-75
2022/04/21 03:00:34;;;;;;;0.20;0.20;;;6.80;99.90;;;6.80;100.00;99946.22;5047976;28;20209;-75
2022/04/21 03:03:02;;;;;;;0.20;0.20;;;6.80;99.90;;;6.85;100.00;99949.78;5069601;28;20210;-74
2022/04/21 03:05:30;;;;;;;0.30;0.30;;;6.80;99.90;;;6.79;100.00;99949.69;5072188;28;20221;-75
2022/04/21 03:07:58;;;;;;;0.20;0.20;;;6.80;99.90;;;6.78;100.00;99948.81;5065551;28;20206;-75
2022/04/21 03:10:26;;;;;;;0.20;0.20;;;6.80;99.90;;;6.70;100.00;99946.06;5071087;28;20214;-79
2022/04/21 03:12:54;;;;;;;0.20;0.20;;;6.70;99.90;;;6.68;100.00;99960.03;5063439;28;20201;-77
2022/04/21 03:15:22;;;;;;;0.30;0.30;;;6.70;99.90;;;6.67;100.00;99955.63;5060628;28;20230;-75
2022/04/21 03:17:49;;;;;;;0.20;0.20;;;6.70;99.90;;;6.73;100.00;99979.38;5044171;28;20241;-75
2022/04/21 03:25:51;;;;;;;0.20;0.20;;;6.70;99.90;;;6.59;100.00;99962.50;5066262;28;20218;-76
2022/04/21 03:28:19;;;;;;;0.20;0.20;;;6.70;99.90;;;6.46;100.00;99963.09;5051707;28;20217;-77
2022/04/21 03:30:46;;;;;;;0.20;0.20;;;6.60;99.90;;;6.47;100.00;99975.38;5071545;28;20202;-75
2022/04/21 03:33:15;;;;;;;0.30;0.30;;;6.50;99.90;;;6.50;100.00;100000.00;5061662;28;20213;-75
2022/04/21 03:35:42;;;;;;;0.20;0.20;;;6.50;99.90;;;6.36;100.00;99991.84;5064524;28;20222;-75
2022/04/21 03:38:10;;;;;;;0.20;0.20;;;6.50;99.90;;;6.42;100.00;99991.94;5072042;28;20218;-75
2022/04/21 03:40:38;;;;;;;0.25;0.25;;;6.40;99.90;;;6.39;100.00;100004.13;5062489;28;20209;-75
2022/04/21 03:43:07;;;;;;;0.30;0.30;;;6.40;99.90;;;6.38;100.00;100008.50;5077740;28;20209;-75
2022/04/21 03:45:36;;;;;;;0.20;0.20;;;6.40;99.90;;;6.46;100.00;100018.28;5057989;28;20217;-76
2022/04/21 03:48:05;;;;;;;0.20;0.20;;;6.40;99.90;;;6.41;100.00;100016.44;5073846;28;20563;-77
2022/04/21 03:50:34;;;;;;;0.20;0.20;;;6.40;99.90;;;6.43;100.00;100021.72;5069470;28;20680;-76
2022/04/21 03:53:02;;;;;;;0.20;0.20;;;6.40;99.90;;;6.47;100.00;100033.16;5067934;28;20194;-75
2022/04/21 03:55:29;;;;;;;0.30;0.30;;;6.40;99.90;;;6.38;100.00;100024.25;5066280;28;20225;-76
2022/04/21 03:57:57;;;;;;;0.20;0.20;;;6.40;99.90;;;6.34;100.00;100022.44;5066617;28;20226;-75
2022/04/21 04:00:25;;;;;;;0.20;0.20;;;6.40;99.90;;;6.40;100.00;100040.94;5067845;28;20205;-76
2022/04/21 04:02:54;;;;;;;0.20;0.20;;;6.40;99.90;;;6.27;100.00;100027.53;5072912;28;20690;-77
2022/04/21 04:05:22;;;;;;;0.20;0.20;;;6.30;99.90;;;6.30;100.00;100054.75;5080496;28;20685;-75
2022/04/21 04:10:52;;;;;;;0.20;0.20;;;6.20;99.90;;;6.23;100.00;100060.72;5059334;28;20212;-79
2022/04/21 04:13:24;;;;;;;0.30;0.30;;;6.20;99.90;;;6.22;100.00;100058.94;5066471;28;20205;-76
2022/04/21 04:15:54;;;;;;;0.20;0.20;;;6.20;99.90;;;6.23;100.00;100071.22;5063289;28;20227;-76
2022/04/21 04:18:23;;;;;;;0.20;0.20;;;6.20;99.90;;;6.22;100.00;100068.56;5063577;28;20230;-78
2022/04/21 04:20:50;;;;;;;0.20;0.20;;;6.20;99.90;;;6.19;100.00;100068.50;5038560;28;20210;-76
2022/04/21 04:23:20;;;;;;;0.20;0.20;;;6.20;99.90;;;6.22;100.00;100071.19;5075352;28;20212;-76
2022/04/21 04:25:49;;;;;;;0.30;0.30;;;6.10;99.90;;;6.17;100.00;100083.34;5073252;28;20706;-74
2022/04/21 04:28:17;;;;;;;0.20;0.20;;;6.10;99.90;;;6.20;100.00;100088.66;5067261;28;20217;-77
2022/04/21 04:30:44;;;;;;;0.20;0.20;;;6.10;99.90;;;6.27;100.00;100095.81;5067756;28;20205;-75
2022/04/21 04:33:14;;;;;;;0.20;0.20;;;6.10;99.90;;;6.16;100.00;100087.72;5090553;28;20673;-74
2022/04/21 04:35:42;;;;;;;0.20;0.20;;;6.10;99.90;;;6.20;100.00;100102.69;5078626;28;20214;-75
2022/04/21 04:38:11;;;;;;;0.30;0.30;;;6.10;99.90;;;6.21;100.00;100101.81;5058085;28;20222;-77
2022/04/21 04:40:39;;;;;;;0.30;0.30;;;6.10;99.90;;;6.15;100.00;100100.81;5073406;28;20200;-77
2022/04/21 04:43:07;;;;;;;0.20;0.20;;;6.10;99.90;;;6.19;100.00;100114.03;5037775;28;20237;-75
2022/04/21 04:48:21;;;;;;;0.20;0.20;;;6.10;99.90;;;6.18;100.00;100107.00;5070652;28;20209;-76
2022/04/21 04:50:49;;;;;;;0.28;0.28;;;6.20;99.90;;;6.14;100.00;100112.16;5072844;28;20197;-77
2022/04/21 04:53:17;;;;;;;0.30;0.30;;;6.10;99.90;;;6.21;100.00;100121.94;5055460;28;20194;-76
2022/04/21 04:55:46;;;;;;;0.20;0.20;;;6.10;99.90;;;6.25;100.00;100124.66;5078133;28;20259;-76
2022/04/21 04:58:14;;;;;;;0.20;0.20;;;6.10;99.90;;;6.21;100.00;100120.19;5052270;28;20222;-76
2022/04/21 05:00:44;;;;;;;0.30;0.30;;;;;;;6.21;100.00;100124.56;5072778;28;20198;-76
2022/04/21 05:03:12;;;;;;;0.20;0.20;;;6.10;99.90;;;6.24;100.00;100133.41;5052589;28;20193;-76
2022/04/21 05:05:40;;;;;;;0.20;0.20;;;6.10;99.90;;;6.36;100.00;100154.66;5072290;28;20233;-76
2022/04/21 05:08:08;;;;;;;0.30;0.30;;;6.20;99.90;;;6.37;100.00;100150.28;5070906;28;20205;-78
2022/04/21 05:10:36;;;;;;;0.57;0.57;;;6.20;99.90;;;6.32;100.00;100157.19;5084426;28;20201;-76
2022/04/21 05:13:04;;;;;;;0.20;0.20;;;6.20;99.90;;;6.39;100.00;100156.47;5073846;28;20202;-75
2022/04/21 05:15:33;;;;;;;0.20;0.20;;;6.20;99.90;;;6.40;100.00;100164.38;5071680;28;20229;-76
2022/04/21 05:18:01;;;;;;;0.30;0.30;;;6.30;99.90;;;6.35;100.00;100162.50;5066366;28;20218;-76
2022/04/21 05:20:30;;;;;;;0.20;0.20;;;6.30;99.90;;;6.35;100.00;100165.13;5067086;28;20206;-75
2022/04/21 05:23:06;;;;;;;0.20;0.20;;;6.30;99.90;;;6.43;100.00;100169.69;5064004;28;20205;-78
2022/04/21 05:25:37;;;;;;;0.30;0.30;;;6.30;99.90;;;6.54;100.00;100179.56;5072206;28;20217;-76
2022/04/21 05:28:09;;;;;;;0.20;0.20;;;6.30;99.90;;;6.59;100.00;100178.81;5086373;28;20202;-77
2022/04/21 05:30:58;;;;;;;0.20;0.20;;;6.40;99.90;;;6.66;100.00;100185.97;5076875;28;20213;-79
2022/04/21 05:33:29;;;;;;;0.20;0.20;;;6.40;99.90;;;6.74;100.00;100188.75;5068487;28;20241;-76
2022/04/21 05:36:00;;;;;;;0.20;0.20;;;6.50;99.90;;;6.85;100.00;100191.59;5068053;28;20225;-75
2022/04/21 05:38:29;;;;;;;0.20;0.20;;;6.50;99.90;;;6.87;100.00;100196.03;5069309;28;20233;-76
2022/04/21 05:40:57;;;;;;;0.20;0.20;;;6.60;99.90;;;6.97;100.00;100205.00;5088422;28;20198;-76
2022/04/21 05:43:39;;;;;;;0.30;0.30;;;6.70;99.90;;;7.10;100.00;100206.13;5073651;28;20198;-76
2022/04/21 05:46:12;;;;;;;0.20;0.20;;;6.70;99.90;;;7.09;100.00;100206.97;5074400;28;20222;-75
2022/04/21 05:48:41;;;;;;;0.20;0.20;;;6.80;99.90;;;7.15;100.00;100209.72;5064740;28;20204;-75
2022/04/21 05:51:11;;;;;;;0.25;0.25;;;6.90;99.90;;;7.27;100.00;100217.84;5083853;28;20575;-75
2022/04/21 05:53:48;;;;;;;0.20;0.20;;;6.90;99.90;;;7.36;100.00;100218.00;5077978;28;20642;-76
2022/04/21 05:56:17;;;;;;;0.30;0.30;;;7.10;99.90;;;7.46;100.00;100212.06;5070733;28;20843;-78
2022/04/21 05:58:45;;;;;;;0.20;0.20;;;7.10;99.90;;;7.57;100.00;100207.88;5060294;28;20233;-75
2022/04/21 06:01:13;;;;;;;0.30;0.30;;;7.20;99.90;;;7.62;100.00;100194.78;5078055;28;20194;-76
2022/04/21 06:03:41;;;;;;;0.20;0.20;;;7.30;99.90;;;7.67;100.00;100194.00;5086268;28;20214;-76
2022/04/21 06:06:10;;;;;;;0.20;0.20;;;8.20;99.90;;;7.81;100.00;100204.78;5076998;28;20232;-76
2022/04/21 06:08:40;;;;;;;0.30;0.30;;;7.40;99.90;;;7.82;100.00;100198.66;5070400;28;20201;-76
2022/04/21 06:11:08;;;;;;;0.20;0.20;;;7.50;99.90;;;7.88;100.00;100189.97;5091240;28;20213;-76
2022/04/21 06:13:36;;;;;;;0.68;0.68;;;7.60;99.90;;;7.95;100.00;100194.50;5078021;28;20199;-76
2022/04/21 06:16:04;;;;;;;0.20;0.20;;;7.70;99.90;;;8.00;100.00;100190.19;5035742;28;20234;-77
2022/04/21 06:18:32;;;;;;;0.20;0.20;;;7.70;99.90;;;8.07;100.00;100189.41;5068766;28;20234;-77
2022/04/21 06:21:00;;;;;;;0.30;0.30;;;7.80;99.90;;;8.15;100.00;100192.16;5075497;28;20209;-76
2022/04/21 06:23:28;;;;;;;0.20;0.20;;;7.80;99.90;;;8.20;100.00;100198.38;5073434;28;20574;-75
2022/04/21 06:25:59;;;;;;;0.20;0.20;;;7.90;99.90;;;8.26;100.00;100193.19;5079376;28;20233;-77
2022/04/21 06:28:28;;;;;;;0.10;0.10;;;7.90;99.90;;;8.40;100.00;100196.06;5050024;28;20194;-74
2022/04/21 06:30:56;;;;;;;0.20;0.20;;;8.00;99.90;;;8.52;100.00;100197.09;5071237;28;20224;-74
2022/04/21 06:33:24;;;;;;;0.20;0.20;;;8.10;99.90;;;8.49;100.00;100183.00;5059814;28;20198;-74
2022/04/21 06:35:52;;;;;;;0.20;0.20;;;8.20;99.90;;;8.70;100.00;100196.47;5069712;28;20712;-75
2022/04/21 06:38:20;;;;;;;0.20;0.20;;;8.30;99.90;;;8.84;100.00;100184.34;5064427;28;20213;-77
2022/04/21 06:40:48;;;;;;;0.20;0.20;;;8.40;99.90;;;9.06;100.00;100188.09;5064931;28;20206;-75
2022/04/21 06:48:51;;;;;;;0.20;0.20;;;8.90;99.90;;;9.36;100.00;100155.91;5072554;28;20205;-75
2022/04/21 06:51:19;;;;;;;0.20;0.20;;;9.00;99.90;;;9.55;100.00;100159.59;5056234;28;20208;-74
2022/04/21 06:53:47;;;;;;;0.20;0.20;;;9.10;99.90;;;9.68;100.00;100136.81;5055498;28;20212;-74
2022/04/21 06:56:16;;;;;;;0.20;0.20;;;9.20;99.90;;;9.74;100.00;100115.75;5061956;28;20232;-74
2022/04/21 06:58:44;;;;;;;0.20;0.20;;;9.40;99.90;;;9.84;100.00;100096.44;5039961;28;20209;-73
2022/04/21 07:01:12;;;;;;;0.10;0.10;;;9.50;99.90;;;9.89;100.00;100092.06;5066975;28;20198;-75
2022/04/21 07:03:40;;;;;;;0.10;0.10;;;9.50;99.90;;;10.04;99.54;100096.56;5060766;28;20210;-74
2022/04/21 07:06:08;;;;;;;0.20;0.20;;;9.70;99.90;;;10.17;100.00;100107.22;5065430;28;20222;-74
2022/04/21 07:08:36;;;;;;;0.20;0.20;;;9.80;99.90;;;10.19;98.71;100079.03;5065561;28;20201;-75
2022/04/21 07:11:04;;;;;;;0.20;0.20;;;9.90;99.90;;;10.20;96.93;100049.13;5060159;28;20202;-74
2022/04/21 07:13:32;;;;;;;0.20;0.20;;;9.90;99.90;;;10.32;95.80;100044.75;5055374;28;20217;-73
2022/04/21 07:16:01;;;;;;;0.20;0.20;;;10.00;99.90;;;10.50;95.89;100044.84;5056076;28;20232;-74
2022/04/21 07:18:29;;;;;;;0.20;0.20;;;10.10;99.90;;;10.55;93.73;100021.97;5060181;28;20214;-74
2022/04/21 07:21:00;;;;;;;0.10;0.10;;;10.20;99.90;;;10.76;93.08;100006.13;5045738;28;20250;-75
2022/04/21 07:23:28;;;;;;;0.10;0.10;;;10.40;99.90;;;11.02;93.43;100022.03;5063997;28;20682;-74
2022/04/21 07:25:56;;;;;;;0.20;0.20;;;10.60;99.90;;;11.01;91.26;99990.28;5061162;28;20233;-73
2022/04/21 07:28:24;;;;;;;0.20;0.20;;;10.70;99.90;;;11.09;90.72;99967.34;5065263;28;20233;-74
2022/04/21 07:30:52;;;;;;;0.10;0.10;;;10.80;99.90;;;11.08;90.52;99953.22;5049635;28;20211;-74
2022/04/21 07:33:20;;;;;;;0.10;0.10;;;10.90;99.90;;;11.25;90.97;99957.63;5075137;28;20215;-75
2022/04/21 07:35:48;;;;;;;0.20;0.20;;;11.00;99.90;;;11.26;88.28;99935.56;5065182;28;20225;-75
2022/04/21 07:38:21;;;;;;;0.35;0.30;;;11.10;99.90;;;11.23;87.51;99902.03;5045445;28;20210;-75
2022/04/21 07:40:53;;;;;;;0.45;0.45;;;11.10;99.90;;;11.43;88.14;99912.59;5067934;28;20242;-74
2022/04/21 07:43:23;;;;;;;0.10;0.10;;;11.20;99.90;;;11.36;86.55;99873.78;5061711;28;20202;-74
2022/04/21 07:45:51;;;;;;;0.10;0.10;;;11.30;99.90;;;11.38;87.08;99867.59;5065941;28;20225;-74
2022/04/21 07:48:19;;;;;;;0.25;0.25;;;11.30;99.90;;;11.59;86.87;99877.22;5053659;28;20212;-73
2022/04/21 07:50:47;;;;;;;0.20;0.20;;;11.40;99.90;;;11.56;86.17;99861.34;5051461;28;20213;-74
2022/04/21 07:53:22;;;;;;;0.10;0.10;;;;;;;11.59;85.49;99845.44;5051071;28;20202;-74
2022/04/21 07:55:50;;;;;;;0.20;0.20;;;11.50;99.90;;;11.42;85.81;99828.75;5048444;28;20236;-73
2022/04/21 07:58:19;;;;;;;0.10;0.10;;;11.50;99.90;;;11.76;86.10;99848.91;5054257;28;20217;-74
2022/04/21 08:00:47;;;;;;;0.10;0.10;;;11.50;99.90;;;12.06;85.91;99862.91;5045135;28;20225;-74
2022/04/21 08:03:18;;;;;;;0.20;0.20;;;11.70;99.90;;;12.27;85.98;99875.16;5061718;28;20213;-75
2022/04/21 08:05:47;;;;;;;0.20;0.20;;;11.90;99.90;;;12.24;84.67;99838.06;5054937;28;20237;-73
2022/04/21 08:08:15;;;;;;;0.10;0.10;;;12.00;99.90;;;12.73;84.23;99860.63;5056469;28;20206;-74
2022/04/21 08:10:43;;;;;;;0.10;0.10;;;12.30;99.90;;;12.78;84.29;99847.34;5060056;28;20221;-73
2022/04/21 08:13:16;;;;;;;0.10;0.10;;;12.50;99.90;;;12.60;82.45;99802.41;5060115;28;20202;-74
2022/04/21 08:15:49;;;;;;;0.13;0.13;;;12.50;99.90;;;12.53;83.58;99795.41;5037491;28;20232;-74
2022/04/21 08:18:17;;;;;;;0.10;0.10;;;12.60;99.90;;;12.63;83.15;99792.66;5035604;28;20202;-74
2022/04/21 08:20:47;;;;;;;0.10;0.10;;;12.70;99.90;;;12.47;83.39;99785.72;5056256;28;20238;-74
2022/04/21 08:23:16;;;;;;;0.10;0.10;;;12.70;99.90;;;12.59;83.73;99798.00;5058410;28;20193;-73
2022/04/21 08:34:14;;;;;;;0.20;0.20;;;12.80;99.90;;;12.77;84.22;99787.19;5051537;28;20206;-73
2022/04/21 08:36:41;;;;;;;0.10;0.10;;;12.90;99.90;;;12.88;83.82;99790.63;5033718;28;20233;-75
2022/04/21 08:39:09;;;;;;;0.20;0.20;;;13.00;99.90;;;12.66;84.55;99781.13;5063999;28;20206;-75
2022/04/21 08:41:50;;;;;;;0.15;0.15;;;13.00;99.90;;;12.48;83.47;99753.88;5019594;28;20234;-74
2022/04/21 08:44:19;;;;;;;0.10;0.10;;;12.80;99.90;;;12.58;82.56;99749.38;5043515;28;20213;-75
2022/04/21 08:46:49;;;;;;;0.20;0.20;;;12.80;99.90;;;12.75;84.69;99776.59;5064985;28;20232;-75
2022/04/21 08:49:21;;;;;;;0.13;0.13;;;12.80;99.90;;;12.59;84.03;99760.84;5069633;28;20217;-76
2022/04/21 08:51:50;;;;;;;0.10;0.10;;;12.90;99.90;;;12.66;83.25;99757.25;5047161;28;20216;-74
2022/04/21 08:54:19;;;;;;;0.10;0.10;;;12.90;99.90;;;12.67;83.08;99753.69;5047883;28;20206;-75
2022/04/21 08:57:08;;;;;;;0.10;0.10;;;12.80;99.90;;;12.47;83.40;99732.69;5053924;28;20599;-74
2022/04/21 08:59:38;;;;;;;0.10;0.10;;;12.60;99.90;;;12.83;84.13;99761.47;5018795;28;20698;-74
2022/04/21 09:02:07;;;;;;;0.10;0.10;;;12.70;99.90;;;12.91;83.74;99757.88;5010863;28;20215;-74
2022/04/21 09:04:35;;;;;;;0.10;0.10;;;12.90;99.90;;;12.90;83.25;99751.69;5022700;28;20465;-75
2022/04/21 09:07:21;;;;;;;0.20;0.20;;;13.10;99.90;;;12.95;82.99;99739.22;5019645;28;20231;-74
2022/04/21 09:10:13;;;;;;;0.10;0.10;;;13.10;99.90;;;13.33;82.78;99768.03;5018572;28;20212;-83
2022/04/21 09:12:55;;;;;;;0.10;0.10;;;13.30;99.90;;;13.36;82.59;99741.44;5026496;28;20214;-79
2022/04/21 09:15:27;;;;;;;0.10;0.10;;;13.40;99.90;;;12.94;80.60;99692.34;5023143;28;20219;-77
2022/04/21 09:18:09;;;;;;;0.20;0.20;;;13.30;99.90;;;12.81;80.58;99665.09;5025755;28;20215;-74
2022/04/21 09:20:39;;;;;;;0.20;0.20;;;13.10;99.90;;;13.08;80.50;99685.13;5033113;28;20227;-75
2022/04/21 09:23:10;;;;;;;0.75;0.75;;;13.10;99.90;;;13.88;81.39;99761.06;5027332;28;20211;-78
2022/04/21 09:25:50;;;;;;;0.10;0.10;;;13.40;99.90;;;13.94;79.37;99719.31;5038708;28;20234;-78
2022/04/21 09:28:24;;;;;;;0.10;0.10;;;13.70;99.90;;;13.70;78.15;99667.44;5026327;28;20207;-75
2022/04/21 09:30:57;;;;;;;0.10;0.10;;;13.80;99.90;;;13.80;78.35;99667.28;5027292;28;20219;-81
2022/04/21 09:33:42;;;;;;;0.10;0.10;;;13.70;99.90;;;13.95;79.03;99670.56;5023646;28;20219;-77
2022/04/21 09:36:11;;;;;;;0.10;0.10;;;13.80;99.90;;;13.90;78.24;99651.16;5027739;28;20717;-74
2022/04/21 09:38:42;;;;;;;0.10;0.10;;;14.00;99.90;;;13.70;76.32;99598.34;5018556;28;20206;-77
2022/04/21 09:41:12;;;;;;;0.10;0.10;;;13.90;99.90;;;14.37;77.58;99674.28;5019011;28;20311;-75
2022/04/21 09:43:42;;;;;;;0.10;0.10;;;14.10;99.90;;;14.75;75.74;99654.06;5030141;28;20207;-77
2022/04/21 09:46:19;;;;;;;0.10;0.10;;;14.40;99.90;;;15.18;76.25;99664.69;5028471;28;20238;-77
2022/04/21 09:48:53;;;;;;;0.10;0.10;;;14.70;99.90;;;15.72;72.96;99634.19;5028135;28;20226;-82
2022/04/21 09:51:27;;;;;;;0.10;0.10;;;15.20;99.90;;;15.31;72.44;99545.41;5014252;28;20203;-78
2022/04/21 09:53:59;;;;;;;0.10;0.10;;;15.50;99.90;;;14.81;72.51;99478.28;5032406;28;20575;-75
2022/04/21 09:56:36;;;;;;;0.10;0.10;;;15.40;99.90;;;15.53;72.12;99548.44;5009990;28;20237;-77
2022/04/21 09:59:08;;;;;;;0.10;0.10;;;15.60;99.90;;;15.46;74.54;99560.16;5027878;28;20223;-75
2022/04/21 10:01:39;;;;;;;0.10;0.10;;;15.60;99.90;;;15.84;72.38;99553.91;5025418;28;20707;-77
2022/04/21 10:04:11;;;;;;;0.10;0.10;;;15.80;99.90;;;15.71;71.13;99499.16;5027494;28;20207;-76
2022/04/21 10:06:42;;;;;;;0.10;0.10;;;15.90;99.90;;;15.89;69.57;99478.22;5024322;28;20235;-76
2022/04/21 10:09:14;;;;;;;0.30;0.30;;;16.00;99.90;;;15.90;70.27;99457.75;5028695;28;20213;-77
2022/04/21 10:11:42;;;;;;;0.10;0.10;;;16.10;99.90;;;16.73;70.62;99534.50;5026840;28;20210;-75
2022/04/21 10:14:12;;;;;;;0.10;0.10;;;16.30;99.90;;;16.50;68.64;99435.53;5022377;28;20222;-76
2022/04/21 10:16:45;;;;;;;0.10;0.10;;;16.50;99.90;;;16.16;66.45;99342.31;5030970;28;20245;-73
2022/04/21 10:19:19;;;;;;;0.10;0.10;;;16.60;99.90;;;16.42;67.61;99374.41;5009197;28;20214;-74
2022/04/21 10:21:53;;;;;;;0.10;0.10;;;16.60;99.90;;;16.82;67.06;99398.03;5012108;28;20227;-72
2022/04/21 10:24:27;;;;;;;0.10;0.10;;;16.80;99.90;;;16.82;66.56;99373.13;5007858;28;20210;-72
2022/04/21 10:26:56;;;;;;;0.10;0.10;;;17.00;99.90;;;16.70;65.61;99314.81;5030169;28;20227;-72
2022/04/21 10:29:29;;;;;;;0.10;0.10;;;17.00;99.90;;;16.81;66.06;99318.00;5008854;28;20294;-71
2022/04/21 10:32:03;;;;;;;0.10;0.10;;;17.00;99.90;;;16.78;66.30;99294.06;5025908;28;20211;-74
2022/04/21 10:34:37;;;;;;;0.00;0.00;;;17.10;99.90;;;16.79;68.33;99322.50;4994069;28;20212;-72
2022/04/21 10:37:16;;;;;;;0.10;0.10;;;17.10;99.90;;;17.37;66.75;99350.75;5021365;28;20227;-74
2022/04/21 10:40:15;;;;;;;0.10;0.10;;;17.40;99.90;;;17.12;65.58;99269.75;5007269;28;20218;-75
2022/04/21 10:42:55;;;;;;;0.10;0.10;;;17.70;99.90;;;17.08;65.27;99244.06;5016371;28;20229;-75
2022/04/21 10:45:33;;;;;;;0.00;0.00;;;17.60;99.90;;;16.77;64.78;99185.53;5032420;28;20218;-74
2022/04/21 10:48:08;;;;;;;0.10;0.10;;;17.40;99.90;;;16.44;65.82;99159.09;5021368;28;20218;-74
2022/04/21 10:50:41;;;;;;;0.10;0.10;;;17.00;99.90;;;16.56;67.58;99204.03;5024474;28;20199;-76
2022/04/21 10:59:07;;;;;;;0.10;0.10;;;17.50;99.90;;;17.41;65.96;99241.97;5027772;28;20226;-74
2022/04/21 11:01:35;;;;;;;0.30;0.30;;;17.80;99.90;;;17.58;65.25;99245.72;5028793;28;20741;-74
2022/04/21 11:04:09;;;;;;;0.00;0.00;;;18.10;99.90;;;17.38;65.63;99204.66;5037716;28;20255;-74
2022/04/21 11:06:52;;;;;;;0.00;0.00;;;18.00;99.90;;;17.13;65.44;99170.84;5025878;28;20236;-74
2022/04/21 11:09:50;;;;;;;0.00;0.00;;;17.80;99.90;;;17.10;66.42;99170.97;5027077;28;20213;-74
2022/04/21 11:12:49;;;;;;;0.10;0.10;;;17.90;99.90;;;16.71;65.41;99092.31;5029862;28;20218;-72